sensor_id;sensor_type;location;lat;lon;timestamp;P1;durP1;ratioP1;P2;durP2;ratioP2
39772;SDS011;25451;51.960;6.250;2023-06-04T00:01:58;5.37;;;1.23;;
39772;SDS011;25451;51.960;6.250;2023-06-04T00:04:25;2.33;;;1.30;;
39772;SDS011;25451;51.960;6.250;2023-06-04T00:06:50;2.97;;;1.20;;
39772;SDS011;25451;51.960;6.250;2023-06-04T00:09:15;4.00;;;1.20;;
39772;SDS011;25451;51.960;6.250;2023-06-04T00:11:41;5.63;;;1.20;;
39772;SDS011;25451;51.960;6.250;2023-06-04T00:14:06;3.23;;;1.20;;
39772;SDS011;25451;51.960;6.250;2023-06-04T00:16:32;5.00;;;1.30;;
39772;SDS011;25451;51.960;6.250;2023-06-04T00:19:00;2.67;;;1.10;;
39772;SDS011;25451;51.960;6.250;2023-06-04T00:21:25;3.33;;;1.10;;
39772;SDS011;25451;51.960;6.250;2023-06-04T00:23:50;3.53;;;1.30;;
39772;SDS011;25451;51.960;6.250;2023-06-04T00:26:16;2.22;;;1.15;;
39772;SDS011;25451;51.960;6.250;2023-06-04T00:28:41;3.43;;;1.20;;
39772;SDS011;25451;51.960;6.250;2023-06-04T00:31:06;2.60;;;1.10;;
39772;SDS011;25451;51.960;6.250;2023-06-04T00:33:32;4.03;;;1.40;;
39772;SDS011;25451;51.960;6.250;2023-06-04T00:35:57;5.23;;;1.33;;
39772;SDS011;25451;51.960;6.250;2023-06-04T00:38:22;2.53;;;1.10;;
39772;SDS011;25451;51.960;6.250;2023-06-04T00:40:48;2.93;;;1.20;;
39772;SDS011;25451;51.960;6.250;2023-06-04T00:43:13;2.73;;;1.20;;
39772;SDS011;25451;51.960;6.250;2023-06-04T00:45:39;4.28;;;1.20;;
39772;SDS011;25451;51.960;6.250;2023-06-04T00:48:05;2.50;;;1.17;;
39772;SDS011;25451;51.960;6.250;2023-06-04T00:50:30;2.25;;;1.20;;
39772;SDS011;25451;51.960;6.250;2023-06-04T00:52:58;3.35;;;1.38;;
39772;SDS011;25451;51.960;6.250;2023-06-04T00:55:23;3.22;;;1.30;;
39772;SDS011;25451;51.960;6.250;2023-06-04T00:57:49;3.60;;;1.30;;
39772;SDS011;25451;51.960;6.250;2023-06-04T01:00:15;2.43;;;1.30;;
39772;SDS011;25451;51.960;6.250;2023-06-04T01:02:41;5.60;;;1.30;;
39772;SDS011;25451;51.960;6.250;2023-06-04T01:07:41;2.95;;;1.30;;
39772;SDS011;25451;51.960;6.250;2023-06-04T01:10:11;4.32;;;1.20;;
39772;SDS011;25451;51.960;6.250;2023-06-04T01:12:40;4.93;;;1.10;;
39772;SDS011;25451;51.960;6.250;2023-06-04T01:15:06;1.83;;;1.00;;
39772;SDS011;25451;51.960;6.250;2023-06-04T01:17:34;2.63;;;1.20;;
39772;SDS011;25451;51.960;6.250;2023-06-04T01:28:14;4.50;;;1.30;;
39772;SDS011;25451;51.960;6.250;2023-06-04T01:30:42;4.00;;;1.08;;
39772;SDS011;25451;51.960;6.250;2023-06-04T01:33:14;4.88;;;1.45;;
39772;SDS011;25451;51.960;6.250;2023-06-04T01:35:41;3.70;;;1.13;;
39772;SDS011;25451;51.960;6.250;2023-06-04T01:38:07;3.87;;;1.20;;
39772;SDS011;25451;51.960;6.250;2023-06-04T01:40:32;4.30;;;1.40;;
39772;SDS011;25451;51.960;6.250;2023-06-04T01:42:58;2.30;;;1.10;;
39772;SDS011;25451;51.960;6.250;2023-06-04T01:45:24;2.77;;;1.30;;
39772;SDS011;25451;51.960;6.250;2023-06-04T01:47:51;1.95;;;1.10;;
39772;SDS011;25451;51.960;6.250;2023-06-04T01:50:16;3.10;;;1.35;;
39772;SDS011;25451;51.960;6.250;2023-06-04T01:52:42;3.40;;;1.20;;
39772;SDS011;25451;51.960;6.250;2023-06-04T01:55:08;2.30;;;1.20;;
39772;SDS011;25451;51.960;6.250;2023-06-04T01:57:37;2.90;;;1.10;;
39772;SDS011;25451;51.960;6.250;2023-06-04T02:00:03;2.55;;;1.20;;
39772;SDS011;25451;51.960;6.250;2023-06-04T02:02:32;3.13;;;1.10;;
39772;SDS011;25451;51.960;6.250;2023-06-04T02:04:57;5.60;;;1.30;;
39772;SDS011;25451;51.960;6.250;2023-06-04T02:07:23;4.20;;;1.10;;
39772;SDS011;25451;51.960;6.250;2023-06-04T02:09:48;3.27;;;1.30;;
39772;SDS011;25451;51.960;6.250;2023-06-04T02:12:14;2.73;;;1.10;;
39772;SDS011;25451;51.960;6.250;2023-06-04T02:14:39;2.53;;;1.20;;
39772;SDS011;25451;51.960;6.250;2023-06-04T02:17:07;3.65;;;1.13;;
39772;SDS011;25451;51.960;6.250;2023-06-04T02:19:40;2.13;;;1.00;;
39772;SDS011;25451;51.960;6.250;2023-06-04T02:22:12;5.38;;;1.40;;
39772;SDS011;25451;51.960;6.250;2023-06-04T02:24:38;2.50;;;0.98;;
39772;SDS011;25451;51.960;6.250;2023-06-04T02:27:04;2.40;;;1.10;;
39772;SDS011;25451;51.960;6.250;2023-06-04T02:29:31;2.72;;;1.10;;
39772;SDS011;25451;51.960;6.250;2023-06-04T02:31:56;3.10;;;1.20;;
39772;SDS011;25451;51.960;6.250;2023-06-04T02:34:22;3.77;;;1.10;;
39772;SDS011;25451;51.960;6.250;2023-06-04T02:36:48;3.00;;;1.23;;
39772;SDS011;25451;51.960;6.250;2023-06-04T02:39:16;2.47;;;1.20;;
39772;SDS011;25451;51.960;6.250;2023-06-04T02:41:41;2.50;;;1.20;;
39772;SDS011;25451;51.960;6.250;2023-06-04T02:44:07;2.77;;;1.20;;
39772;SDS011;25451;51.960;6.250;2023-06-04T02:46:32;2.97;;;1.30;;
39772;SDS011;25451;51.960;6.250;2023-06-04T02:48:57;2.77;;;1.23;;
39772;SDS011;25451;51.960;6.250;2023-06-04T02:51:22;3.13;;;1.33;;
39772;SDS011;25451;51.960;6.250;2023-06-04T02:53:48;2.57;;;1.20;;
39772;SDS011;25451;51.960;6.250;2023-06-04T02:56:13;3.30;;;1.30;;
39772;SDS011;25451;51.960;6.250;2023-06-04T02:58:48;2.03;;;1.10;;
39772;SDS011;25451;51.960;6.250;2023-06-04T03:01:21;3.72;;;1.20;;
39772;SDS011;25451;51.960;6.250;2023-06-04T03:03:51;2.75;;;1.20;;
39772;SDS011;25451;51.960;6.250;2023-06-04T03:06:17;4.00;;;1.20;;
39772;SDS011;25451;51.960;6.250;2023-06-04T03:08:45;2.78;;;1.15;;
39772;SDS011;25451;51.960;6.250;2023-06-04T03:11:15;2.17;;;1.00;;
39772;SDS011;25451;51.960;6.250;2023-06-04T03:13:40;5.38;;;1.67;;
39772;SDS011;25451;51.960;6.250;2023-06-04T03:16:06;5.03;;;1.40;;
39772;SDS011;25451;51.960;6.250;2023-06-04T03:18:37;2.80;;;1.30;;
39772;SDS011;25451;51.960;6.250;2023-06-04T03:21:06;3.47;;;1.20;;
39772;SDS011;25451;51.960;6.250;2023-06-04T03:23:33;3.53;;;1.20;;
39772;SDS011;25451;51.960;6.250;2023-06-04T03:26:00;2.90;;;1.30;;
39772;SDS011;25451;51.960;6.250;2023-06-04T03:28:26;3.72;;;1.20;;
39772;SDS011;25451;51.960;6.250;2023-06-04T03:30:51;2.93;;;1.30;;
39772;SDS011;25451;51.960;6.250;2023-06-04T03:33:17;4.57;;;1.30;;
39772;SDS011;25451;51.960;6.250;2023-06-04T03:35:42;4.10;;;1.23;;
39772;SDS011;25451;51.960;6.250;2023-06-04T03:38:07;2.83;;;1.17;;
39772;SDS011;25451;51.960;6.250;2023-06-04T03:40:33;3.67;;;1.20;;
39772;SDS011;25451;51.960;6.250;2023-06-04T03:42:58;4.15;;;1.20;;
39772;SDS011;25451;51.960;6.250;2023-06-04T03:45:25;2.60;;;0.97;;
39772;SDS011;25451;51.960;6.250;2023-06-04T03:47:50;2.67;;;1.10;;
39772;SDS011;25451;51.960;6.250;2023-06-04T03:50:17;3.67;;;1.20;;
39772;SDS011;25451;51.960;6.250;2023-06-04T03:52:45;4.35;;;1.40;;
39772;SDS011;25451;51.960;6.250;2023-06-04T03:55:10;2.90;;;1.30;;
39772;SDS011;25451;51.960;6.250;2023-06-04T03:57:38;2.78;;;1.10;;
39772;SDS011;25451;51.960;6.250;2023-06-04T04:00:05;3.00;;;1.20;;
39772;SDS011;25451;51.960;6.250;2023-06-04T04:02:31;5.15;;;1.50;;
39772;SDS011;25451;51.960;6.250;2023-06-04T04:04:57;4.13;;;1.50;;
39772;SDS011;25451;51.960;6.250;2023-06-04T04:07:22;2.27;;;1.13;;
39772;SDS011;25451;51.960;6.250;2023-06-04T04:09:49;3.08;;;1.33;;
39772;SDS011;25451;51.960;6.250;2023-06-04T04:12:14;3.73;;;1.40;;
39772;SDS011;25451;51.960;6.250;2023-06-04T04:14:40;3.67;;;1.27;;
39772;SDS011;25451;51.960;6.250;2023-06-04T04:17:05;2.57;;;1.20;;
39772;SDS011;25451;51.960;6.250;2023-06-04T04:19:31;2.53;;;1.40;;
39772;SDS011;25451;51.960;6.250;2023-06-04T04:21:56;3.17;;;1.20;;
39772;SDS011;25451;51.960;6.250;2023-06-04T04:24:22;5.20;;;1.60;;
39772;SDS011;25451;51.960;6.250;2023-06-04T04:26:51;3.42;;;1.45;;
39772;SDS011;25451;51.960;6.250;2023-06-04T04:29:18;2.57;;;1.40;;
39772;SDS011;25451;51.960;6.250;2023-06-04T04:31:47;4.30;;;1.73;;
39772;SDS011;25451;51.960;6.250;2023-06-04T04:34:14;4.43;;;1.67;;
39772;SDS011;25451;51.960;6.250;2023-06-04T04:36:40;4.80;;;1.57;;
39772;SDS011;25451;51.960;6.250;2023-06-04T04:39:05;3.97;;;1.40;;
39772;SDS011;25451;51.960;6.250;2023-06-04T04:41:31;2.63;;;1.40;;
39772;SDS011;25451;51.960;6.250;2023-06-04T04:44:02;4.68;;;1.63;;
39772;SDS011;25451;51.960;6.250;2023-06-04T04:46:29;3.13;;;1.67;;
39772;SDS011;25451;51.960;6.250;2023-06-04T04:48:54;3.50;;;1.60;;
39772;SDS011;25451;51.960;6.250;2023-06-04T04:51:19;3.53;;;1.50;;
39772;SDS011;25451;51.960;6.250;2023-06-04T04:53:45;4.23;;;1.63;;
39772;SDS011;25451;51.960;6.250;2023-06-04T04:56:10;4.00;;;1.93;;
39772;SDS011;25451;51.960;6.250;2023-06-04T04:58:35;5.33;;;1.60;;
39772;SDS011;25451;51.960;6.250;2023-06-04T05:01:00;3.73;;;1.50;;
39772;SDS011;25451;51.960;6.250;2023-06-04T05:03:26;5.87;;;1.80;;
39772;SDS011;25451;51.960;6.250;2023-06-04T05:05:51;3.57;;;1.57;;
39772;SDS011;25451;51.960;6.250;2023-06-04T05:08:16;5.23;;;1.70;;
39772;SDS011;25451;51.960;6.250;2023-06-04T05:10:42;4.43;;;1.70;;
39772;SDS011;25451;51.960;6.250;2023-06-04T05:13:07;5.47;;;1.57;;
39772;SDS011;25451;51.960;6.250;2023-06-04T05:15:32;4.17;;;1.70;;
39772;SDS011;25451;51.960;6.250;2023-06-04T05:17:58;5.18;;;1.70;;
39772;SDS011;25451;51.960;6.250;2023-06-04T05:20:25;5.93;;;1.77;;
39772;SDS011;25451;51.960;6.250;2023-06-04T05:22:51;6.03;;;1.70;;
39772;SDS011;25451;51.960;6.250;2023-06-04T05:25:16;4.23;;;1.70;;
39772;SDS011;25451;51.960;6.250;2023-06-04T05:27:42;4.40;;;1.70;;
39772;SDS011;25451;51.960;6.250;2023-06-04T05:30:08;4.27;;;1.90;;
39772;SDS011;25451;51.960;6.250;2023-06-04T05:32:33;4.85;;;1.63;;
39772;SDS011;25451;51.960;6.250;2023-06-04T05:35:01;4.90;;;1.83;;
39772;SDS011;25451;51.960;6.250;2023-06-04T05:37:29;4.20;;;1.67;;
39772;SDS011;25451;51.960;6.250;2023-06-04T05:39:57;5.10;;;1.87;;
39772;SDS011;25451;51.960;6.250;2023-06-04T05:42:23;3.70;;;1.70;;
39772;SDS011;25451;51.960;6.250;2023-06-04T05:44:48;5.20;;;1.70;;
39772;SDS011;25451;51.960;6.250;2023-06-04T05:47:15;4.13;;;1.80;;
39772;SDS011;25451;51.960;6.250;2023-06-04T05:49:41;4.70;;;1.97;;
39772;SDS011;25451;51.960;6.250;2023-06-04T05:52:06;5.87;;;1.70;;
39772;SDS011;25451;51.960;6.250;2023-06-04T05:54:32;8.52;;;1.83;;
39772;SDS011;25451;51.960;6.250;2023-06-04T05:56:58;5.80;;;2.00;;
39772;SDS011;25451;51.960;6.250;2023-06-04T05:59:23;6.77;;;2.27;;
39772;SDS011;25451;51.960;6.250;2023-06-04T06:01:49;6.27;;;1.70;;
39772;SDS011;25451;51.960;6.250;2023-06-04T06:04:14;6.38;;;1.92;;
39772;SDS011;25451;51.960;6.250;2023-06-04T06:06:41;5.38;;;1.90;;
39772;SDS011;25451;51.960;6.250;2023-06-04T06:09:08;4.72;;;1.75;;
39772;SDS011;25451;51.960;6.250;2023-06-04T06:11:34;5.50;;;1.88;;
39772;SDS011;25451;51.960;6.250;2023-06-04T06:14:00;4.10;;;1.58;;
39772;SDS011;25451;51.960;6.250;2023-06-04T06:16:27;4.85;;;1.80;;
39772;SDS011;25451;51.960;6.250;2023-06-04T06:18:53;5.70;;;1.90;;
39772;SDS011;25451;51.960;6.250;2023-06-04T06:21:18;4.00;;;2.00;;
39772;SDS011;25451;51.960;6.250;2023-06-04T06:23:44;4.00;;;1.70;;
39772;SDS011;25451;51.960;6.250;2023-06-04T06:26:09;3.33;;;1.70;;
39772;SDS011;25451;51.960;6.250;2023-06-04T06:28:35;3.93;;;1.70;;
39772;SDS011;25451;51.960;6.250;2023-06-04T06:31:01;3.80;;;1.75;;
39772;SDS011;25451;51.960;6.250;2023-06-04T06:33:27;3.50;;;1.80;;
39772;SDS011;25451;51.960;6.250;2023-06-04T06:35:52;4.72;;;1.70;;
39772;SDS011;25451;51.960;6.250;2023-06-04T06:38:17;6.23;;;1.80;;
39772;SDS011;25451;51.960;6.250;2023-06-04T06:40:43;5.43;;;1.70;;
39772;SDS011;25451;51.960;6.250;2023-06-04T06:43:08;4.97;;;1.83;;
39772;SDS011;25451;51.960;6.250;2023-06-04T06:45:34;4.53;;;1.70;;
39772;SDS011;25451;51.960;6.250;2023-06-04T06:48:00;3.60;;;1.80;;
39772;SDS011;25451;51.960;6.250;2023-06-04T06:50:25;7.40;;;2.57;;
39772;SDS011;25451;51.960;6.250;2023-06-04T06:52:51;3.83;;;1.87;;
39772;SDS011;25451;51.960;6.250;2023-06-04T06:55:16;4.93;;;1.83;;
39772;SDS011;25451;51.960;6.250;2023-06-04T06:57:41;3.77;;;1.70;;
39772;SDS011;25451;51.960;6.250;2023-06-04T07:00:07;6.50;;;1.80;;
39772;SDS011;25451;51.960;6.250;2023-06-04T07:02:33;3.45;;;1.63;;
39772;SDS011;25451;51.960;6.250;2023-06-04T07:04:58;3.00;;;1.60;;
39772;SDS011;25451;51.960;6.250;2023-06-04T07:07:24;6.47;;;1.90;;
39772;SDS011;25451;51.960;6.250;2023-06-04T07:09:49;5.63;;;1.97;;
39772;SDS011;25451;51.960;6.250;2023-06-04T07:12:15;6.43;;;1.90;;
39772;SDS011;25451;51.960;6.250;2023-06-04T07:14:40;3.70;;;1.43;;
39772;SDS011;25451;51.960;6.250;2023-06-04T07:17:05;5.37;;;2.00;;
39772;SDS011;25451;51.960;6.250;2023-06-04T07:19:31;4.95;;;1.70;;
39772;SDS011;25451;51.960;6.250;2023-06-04T07:21:56;5.90;;;1.90;;
39772;SDS011;25451;51.960;6.250;2023-06-04T07:24:22;4.30;;;1.93;;
39772;SDS011;25451;51.960;6.250;2023-06-04T07:26:47;3.57;;;1.70;;
39772;SDS011;25451;51.960;6.250;2023-06-04T07:29:13;5.22;;;1.75;;
39772;SDS011;25451;51.960;6.250;2023-06-04T07:31:38;5.37;;;1.97;;
39772;SDS011;25451;51.960;6.250;2023-06-04T07:34:04;6.73;;;1.70;;
39772;SDS011;25451;51.960;6.250;2023-06-04T07:36:29;3.43;;;1.60;;
39772;SDS011;25451;51.960;6.250;2023-06-04T07:38:55;4.82;;;1.80;;
39772;SDS011;25451;51.960;6.250;2023-06-04T07:41:21;4.73;;;1.70;;
39772;SDS011;25451;51.960;6.250;2023-06-04T07:43:46;4.78;;;1.85;;
39772;SDS011;25451;51.960;6.250;2023-06-04T07:46:12;4.10;;;1.83;;
39772;SDS011;25451;51.960;6.250;2023-06-04T07:48:38;5.65;;;1.88;;
39772;SDS011;25451;51.960;6.250;2023-06-04T07:51:03;5.37;;;2.20;;
39772;SDS011;25451;51.960;6.250;2023-06-04T07:53:29;4.13;;;1.60;;
39772;SDS011;25451;51.960;6.250;2023-06-04T07:55:55;4.25;;;1.67;;
39772;SDS011;25451;51.960;6.250;2023-06-04T07:58:21;3.85;;;1.95;;
39772;SDS011;25451;51.960;6.250;2023-06-04T08:00:47;4.90;;;1.60;;
39772;SDS011;25451;51.960;6.250;2023-06-04T08:03:12;5.13;;;1.70;;
39772;SDS011;25451;51.960;6.250;2023-06-04T08:05:37;3.90;;;1.67;;
39772;SDS011;25451;51.960;6.250;2023-06-04T08:08:03;5.07;;;2.00;;
39772;SDS011;25451;51.960;6.250;2023-06-04T08:10:28;5.63;;;1.90;;
39772;SDS011;25451;51.960;6.250;2023-06-04T08:12:54;4.33;;;1.60;;
39772;SDS011;25451;51.960;6.250;2023-06-04T08:15:19;4.23;;;1.87;;
39772;SDS011;25451;51.960;6.250;2023-06-04T08:17:45;4.03;;;1.70;;
39772;SDS011;25451;51.960;6.250;2023-06-04T08:20:10;3.70;;;1.60;;
39772;SDS011;25451;51.960;6.250;2023-06-04T08:22:36;3.40;;;1.60;;
39772;SDS011;25451;51.960;6.250;2023-06-04T08:25:01;4.22;;;1.60;;
39772;SDS011;25451;51.960;6.250;2023-06-04T08:27:28;6.53;;;2.13;;
39772;SDS011;25451;51.960;6.250;2023-06-04T08:29:53;5.97;;;1.77;;
39772;SDS011;25451;51.960;6.250;2023-06-04T08:32:19;5.40;;;1.70;;
39772;SDS011;25451;51.960;6.250;2023-06-04T08:34:44;5.07;;;1.50;;
39772;SDS011;25451;51.960;6.250;2023-06-04T08:37:10;6.60;;;1.70;;
39772;SDS011;25451;51.960;6.250;2023-06-04T08:39:35;3.27;;;1.53;;
39772;SDS011;25451;51.960;6.250;2023-06-04T08:42:03;6.70;;;1.42;;
39772;SDS011;25451;51.960;6.250;2023-06-04T08:44:32;4.67;;;1.50;;
39772;SDS011;25451;51.960;6.250;2023-06-04T08:47:02;4.95;;;1.73;;
39772;SDS011;25451;51.960;6.250;2023-06-04T08:49:31;4.28;;;1.40;;
39772;SDS011;25451;51.960;6.250;2023-06-04T08:52:02;3.20;;;1.50;;
39772;SDS011;25451;51.960;6.250;2023-06-04T08:54:28;3.70;;;1.50;;
39772;SDS011;25451;51.960;6.250;2023-06-04T08:56:56;2.90;;;1.50;;
39772;SDS011;25451;51.960;6.250;2023-06-04T08:59:22;3.05;;;1.38;;
39772;SDS011;25451;51.960;6.250;2023-06-04T09:01:50;3.13;;;1.40;;
39772;SDS011;25451;51.960;6.250;2023-06-04T09:04:18;4.38;;;1.45;;
39772;SDS011;25451;51.960;6.250;2023-06-04T09:06:43;3.00;;;1.50;;
39772;SDS011;25451;51.960;6.250;2023-06-04T09:09:10;3.47;;;1.60;;
39772;SDS011;25451;51.960;6.250;2023-06-04T09:12:10;3.33;;;1.40;;
39772;SDS011;25451;51.960;6.250;2023-06-04T09:14:29;3.22;;;1.40;;
39772;SDS011;25451;51.960;6.250;2023-06-04T09:16:55;4.60;;;1.40;;
39772;SDS011;25451;51.960;6.250;2023-06-04T09:19:23;6.35;;;1.20;;
39772;SDS011;25451;51.960;6.250;2023-06-04T09:21:55;4.93;;;1.20;;
39772;SDS011;25451;51.960;6.250;2023-06-04T09:24:23;2.80;;;1.23;;
39772;SDS011;25451;51.960;6.250;2023-06-04T09:26:50;2.90;;;1.15;;
39772;SDS011;25451;51.960;6.250;2023-06-04T09:29:16;5.87;;;1.23;;
39772;SDS011;25451;51.960;6.250;2023-06-04T09:31:46;2.25;;;1.30;;
39772;SDS011;25451;51.960;6.250;2023-06-04T09:34:28;1.48;;;0.80;;
39772;SDS011;25451;51.960;6.250;2023-06-04T09:36:56;1.98;;;0.90;;
39772;SDS011;25451;51.960;6.250;2023-06-04T09:39:21;2.07;;;0.93;;
39772;SDS011;25451;51.960;6.250;2023-06-04T09:42:00;2.55;;;0.88;;
39772;SDS011;25451;51.960;6.250;2023-06-04T09:44:27;1.30;;;0.73;;
39772;SDS011;25451;51.960;6.250;2023-06-04T09:46:56;1.65;;;0.85;;
39772;SDS011;25451;51.960;6.250;2023-06-04T09:49:22;1.70;;;0.90;;
39772;SDS011;25451;51.960;6.250;2023-06-04T09:51:48;2.50;;;0.80;;
39772;SDS011;25451;51.960;6.250;2023-06-04T09:54:14;2.10;;;0.90;;
39772;SDS011;25451;51.960;6.250;2023-06-04T09:56:40;1.83;;;0.80;;
39772;SDS011;25451;51.960;6.250;2023-06-04T09:59:06;1.77;;;0.80;;
39772;SDS011;25451;51.960;6.250;2023-06-04T10:01:34;1.92;;;0.90;;
39772;SDS011;25451;51.960;6.250;2023-06-04T10:04:03;2.67;;;0.70;;
39772;SDS011;25451;51.960;6.250;2023-06-04T10:06:35;1.80;;;0.90;;
39772;SDS011;25451;51.960;6.250;2023-06-04T10:09:04;2.50;;;0.82;;
39772;SDS011;25451;51.960;6.250;2023-06-04T10:11:33;2.40;;;0.90;;
39772;SDS011;25451;51.960;6.250;2023-06-04T10:14:02;2.28;;;0.95;;
39772;SDS011;25451;51.960;6.250;2023-06-04T10:16:29;2.25;;;0.93;;
39772;SDS011;25451;51.960;6.250;2023-06-04T10:18:56;1.55;;;0.82;;
39772;SDS011;25451;51.960;6.250;2023-06-04T10:21:22;1.77;;;0.90;;
39772;SDS011;25451;51.960;6.250;2023-06-04T10:23:48;2.80;;;1.10;;
39772;SDS011;25451;51.960;6.250;2023-06-04T10:26:14;2.63;;;0.93;;
39772;SDS011;25451;51.960;6.250;2023-06-04T10:28:40;4.05;;;1.00;;
39772;SDS011;25451;51.960;6.250;2023-06-04T10:31:08;2.17;;;0.93;;
39772;SDS011;25451;51.960;6.250;2023-06-04T10:33:34;2.30;;;0.90;;
39772;SDS011;25451;51.960;6.250;2023-06-04T10:36:00;1.90;;;1.00;;
39772;SDS011;25451;51.960;6.250;2023-06-04T10:38:46;2.70;;;1.02;;
39772;SDS011;25451;51.960;6.250;2023-06-04T10:41:15;3.27;;;0.90;;
39772;SDS011;25451;51.960;6.250;2023-06-04T10:43:41;1.80;;;0.98;;
39772;SDS011;25451;51.960;6.250;2023-06-04T10:46:14;2.67;;;1.00;;
39772;SDS011;25451;51.960;6.250;2023-06-04T10:48:47;1.95;;;0.93;;
39772;SDS011;25451;51.960;6.250;2023-06-04T10:51:16;3.65;;;1.00;;
39772;SDS011;25451;51.960;6.250;2023-06-04T10:53:56;4.47;;;1.37;;
39772;SDS011;25451;51.960;6.250;2023-06-04T10:56:25;1.70;;;0.90;;
39772;SDS011;25451;51.960;6.250;2023-06-04T10:58:55;2.80;;;0.90;;
39772;SDS011;25451;51.960;6.250;2023-06-04T11:01:27;2.83;;;1.20;;
39772;SDS011;25451;51.960;6.250;2023-06-04T11:03:56;2.45;;;1.00;;
39772;SDS011;25451;51.960;6.250;2023-06-04T11:06:22;3.47;;;1.10;;
39772;SDS011;25451;51.960;6.250;2023-06-04T11:09:00;2.35;;;0.93;;
39772;SDS011;25451;51.960;6.250;2023-06-04T11:11:30;3.90;;;1.20;;
39772;SDS011;25451;51.960;6.250;2023-06-04T11:14:06;2.60;;;1.07;;
39772;SDS011;25451;51.960;6.250;2023-06-04T11:16:36;1.55;;;0.90;;
39772;SDS011;25451;51.960;6.250;2023-06-04T11:19:02;1.90;;;1.00;;
39772;SDS011;25451;51.960;6.250;2023-06-04T11:21:28;2.20;;;0.90;;
39772;SDS011;25451;51.960;6.250;2023-06-04T11:23:59;3.20;;;0.90;;
39772;SDS011;25451;51.960;6.250;2023-06-04T11:26:32;2.10;;;0.90;;
39772;SDS011;25451;51.960;6.250;2023-06-04T11:28:58;1.75;;;0.95;;
39772;SDS011;25451;51.960;6.250;2023-06-04T11:31:24;1.90;;;1.00;;
39772;SDS011;25451;51.960;6.250;2023-06-04T11:33:50;1.83;;;0.90;;
39772;SDS011;25451;51.960;6.250;2023-06-04T11:36:25;2.42;;;1.00;;
39772;SDS011;25451;51.960;6.250;2023-06-04T11:38:55;1.75;;;0.90;;
39772;SDS011;25451;51.960;6.250;2023-06-04T11:41:21;1.97;;;1.00;;
39772;SDS011;25451;51.960;6.250;2023-06-04T11:43:49;2.60;;;0.98;;
39772;SDS011;25451;51.960;6.250;2023-06-04T11:46:15;3.60;;;1.00;;
39772;SDS011;25451;51.960;6.250;2023-06-04T11:48:40;2.17;;;1.00;;
39772;SDS011;25451;51.960;6.250;2023-06-04T11:51:06;3.53;;;0.83;;
39772;SDS011;25451;51.960;6.250;2023-06-04T11:53:36;3.40;;;1.05;;
39772;SDS011;25451;51.960;6.250;2023-06-04T11:56:02;1.45;;;0.85;;
39772;SDS011;25451;51.960;6.250;2023-06-04T11:58:28;3.27;;;1.10;;
39772;SDS011;25451;51.960;6.250;2023-06-04T12:00:55;2.35;;;0.98;;
39772;SDS011;25451;51.960;6.250;2023-06-04T12:03:33;1.95;;;1.02;;
39772;SDS011;25451;51.960;6.250;2023-06-04T12:06:11;2.33;;;1.13;;
39772;SDS011;25451;51.960;6.250;2023-06-04T12:11:34;2.28;;;1.05;;
39772;SDS011;25451;51.960;6.250;2023-06-04T12:14:06;2.25;;;1.00;;
39772;SDS011;25451;51.960;6.250;2023-06-04T12:16:33;2.85;;;1.10;;
39772;SDS011;25451;51.960;6.250;2023-06-04T12:19:17;2.17;;;1.00;;
39772;SDS011;25451;51.960;6.250;2023-06-04T12:21:42;2.92;;;1.10;;
39772;SDS011;25451;51.960;6.250;2023-06-04T12:24:14;2.50;;;1.17;;
39772;SDS011;25451;51.960;6.250;2023-06-04T12:26:40;3.70;;;1.10;;
39772;SDS011;25451;51.960;6.250;2023-06-04T12:29:24;2.85;;;1.10;;
39772;SDS011;25451;51.960;6.250;2023-06-04T12:31:49;1.38;;;0.90;;
39772;SDS011;25451;51.960;6.250;2023-06-04T12:34:25;2.00;;;0.95;;
39772;SDS011;25451;51.960;6.250;2023-06-04T12:36:51;1.83;;;1.00;;
39772;SDS011;25451;51.960;6.250;2023-06-04T12:39:16;2.40;;;1.10;;
39772;SDS011;25451;51.960;6.250;2023-06-04T12:41:44;3.30;;;1.00;;
39772;SDS011;25451;51.960;6.250;2023-06-04T12:44:10;4.25;;;1.05;;
39772;SDS011;25451;51.960;6.250;2023-06-04T12:46:36;2.90;;;1.07;;
39772;SDS011;25451;51.960;6.250;2023-06-04T12:49:01;4.27;;;1.50;;
39772;SDS011;25451;51.960;6.250;2023-06-04T12:51:26;2.83;;;1.10;;
39772;SDS011;25451;51.960;6.250;2023-06-04T12:53:52;2.90;;;1.13;;
39772;SDS011;25451;51.960;6.250;2023-06-04T12:56:17;2.90;;;1.27;;
39772;SDS011;25451;51.960;6.250;2023-06-04T12:58:43;1.80;;;1.00;;
39772;SDS011;25451;51.960;6.250;2023-06-04T13:01:08;1.63;;;0.93;;
39772;SDS011;25451;51.960;6.250;2023-06-04T13:03:35;2.40;;;1.10;;
39772;SDS011;25451;51.960;6.250;2023-06-04T13:06:01;1.88;;;1.00;;
39772;SDS011;25451;51.960;6.250;2023-06-04T13:08:27;3.20;;;1.10;;
39772;SDS011;25451;51.960;6.250;2023-06-04T13:10:52;1.70;;;1.07;;
39772;SDS011;25451;51.960;6.250;2023-06-04T13:13:18;3.90;;;1.10;;
39772;SDS011;25451;51.960;6.250;2023-06-04T13:15:44;1.67;;;1.00;;
39772;SDS011;25451;51.960;6.250;2023-06-04T13:18:10;2.30;;;1.23;;
39772;SDS011;25451;51.960;6.250;2023-06-04T13:20:36;5.32;;;1.15;;
39772;SDS011;25451;51.960;6.250;2023-06-04T13:23:02;4.43;;;1.30;;
39772;SDS011;25451;51.960;6.250;2023-06-04T13:25:28;2.25;;;1.15;;
39772;SDS011;25451;51.960;6.250;2023-06-04T13:27:53;3.50;;;1.10;;
39772;SDS011;25451;51.960;6.250;2023-06-04T13:30:19;2.15;;;1.10;;
39772;SDS011;25451;51.960;6.250;2023-06-04T13:32:44;1.73;;;1.00;;
39772;SDS011;25451;51.960;6.250;2023-06-04T13:35:10;2.40;;;0.90;;
39772;SDS011;25451;51.960;6.250;2023-06-04T13:37:35;2.80;;;1.10;;
39772;SDS011;25451;51.960;6.250;2023-06-04T13:40:00;2.37;;;1.10;;
39772;SDS011;25451;51.960;6.250;2023-06-04T13:42:26;3.07;;;1.20;;
39772;SDS011;25451;51.960;6.250;2023-06-04T13:44:51;1.90;;;1.10;;
39772;SDS011;25451;51.960;6.250;2023-06-04T13:47:16;2.13;;;1.10;;
39772;SDS011;25451;51.960;6.250;2023-06-04T13:49:43;3.23;;;1.00;;
39772;SDS011;25451;51.960;6.250;2023-06-04T13:52:08;2.47;;;1.17;;
39772;SDS011;25451;51.960;6.250;2023-06-04T13:54:33;2.30;;;1.30;;
39772;SDS011;25451;51.960;6.250;2023-06-04T13:57:01;6.23;;;1.30;;
39772;SDS011;25451;51.960;6.250;2023-06-04T13:59:28;4.05;;;1.30;;
39772;SDS011;25451;51.960;6.250;2023-06-04T14:01:55;3.60;;;1.20;;
39772;SDS011;25451;51.960;6.250;2023-06-04T14:04:20;3.33;;;1.20;;
39772;SDS011;25451;51.960;6.250;2023-06-04T14:06:45;2.23;;;1.10;;
39772;SDS011;25451;51.960;6.250;2023-06-04T14:09:12;1.85;;;1.00;;
39772;SDS011;25451;51.960;6.250;2023-06-04T14:11:38;2.88;;;1.00;;
39772;SDS011;25451;51.960;6.250;2023-06-04T14:14:04;4.07;;;1.40;;
39772;SDS011;25451;51.960;6.250;2023-06-04T14:16:29;2.17;;;1.00;;
39772;SDS011;25451;51.960;6.250;2023-06-04T14:18:54;2.20;;;1.23;;
39772;SDS011;25451;51.960;6.250;2023-06-04T14:21:20;3.87;;;1.33;;
39772;SDS011;25451;51.960;6.250;2023-06-04T14:23:46;2.63;;;1.40;;
39772;SDS011;25451;51.960;6.250;2023-06-04T14:26:12;1.80;;;1.00;;
39772;SDS011;25451;51.960;6.250;2023-06-04T14:28:37;3.27;;;1.13;;
39772;SDS011;25451;51.960;6.250;2023-06-04T14:31:02;2.70;;;1.17;;
39772;SDS011;25451;51.960;6.250;2023-06-04T14:33:28;2.57;;;1.37;;
39772;SDS011;25451;51.960;6.250;2023-06-04T14:35:53;3.20;;;1.20;;
39772;SDS011;25451;51.960;6.250;2023-06-04T14:38:18;2.30;;;1.13;;
39772;SDS011;25451;51.960;6.250;2023-06-04T14:40:44;1.83;;;1.10;;
39772;SDS011;25451;51.960;6.250;2023-06-04T14:43:12;3.50;;;1.40;;
39772;SDS011;25451;51.960;6.250;2023-06-04T14:45:37;2.40;;;1.10;;
39772;SDS011;25451;51.960;6.250;2023-06-04T14:48:04;2.73;;;1.27;;
39772;SDS011;25451;51.960;6.250;2023-06-04T14:50:30;2.78;;;1.20;;
39772;SDS011;25451;51.960;6.250;2023-06-04T14:52:55;4.83;;;1.40;;
39772;SDS011;25451;51.960;6.250;2023-06-04T14:55:21;2.10;;;1.20;;
39772;SDS011;25451;51.960;6.250;2023-06-04T14:57:46;2.00;;;1.13;;
39772;SDS011;25451;51.960;6.250;2023-06-04T15:00:11;4.03;;;1.20;;